Time;durP1;ratioP1;P1;durP2;ratioP2;P2;SDS_P1;SDS_P2;PMS_P1;PMS_P2;Temp;Humidity;BMP_temperature;BMP_pressure;BME280_temperature;BME280_humidity;BME280_pressure;Samples;Min_cycle;Max_cycle;Signal;HPM_P1;HPM_P2
2021/06/04 00:01:12;;;;;;;10.48;7.55;;;20.50;80.40;;;;;;5093681;28;20020;-77
2021/06/04 00:03:38;;;;;;;8.60;6.10;;;20.50;80.50;;;;;;5093869;28;20429;-77
2021/06/04 00:06:05;;;;;;;9.85;7.53;;;20.50;80.40;;;;;;5092405;28;20023;-77
2021/06/04 00:08:31;;;;;;;10.05;7.22;;;20.50;80.50;;;;;;5093683;28;20036;-77
2021/06/04 00:11:01;;;;;;;10.35;7.28;;;20.40;80.80;;;;;;5092070;28;20669;-78
2021/06/04 00:13:34;;;;;;;11.40;7.75;;;20.50;81.00;;;;;;5093582;28;20077;-77
2021/06/04 00:16:03;;;;;;;15.65;7.28;;;20.40;80.40;;;;;;5093313;28;20031;-77
2021/06/04 00:18:30;;;;;;;11.15;7.75;;;20.50;80.30;;;;;;5093681;28;20016;-77
2021/06/04 00:20:59;;;;;;;9.93;7.85;;;20.40;80.60;;;;;;5093818;28;20098;-77
2021/06/04 00:23:25;;;;;;;12.40;8.40;;;20.40;80.90;;;;;;5093564;28;20524;-77
2021/06/04 00:25:50;;;;;;;10.30;7.60;;;20.40;80.70;;;;;;5093730;28;20108;-77
2021/06/04 00:28:16;;;;;;;11.68;7.45;;;20.40;81.20;;;;;;5092474;28;20407;-77
2021/06/04 00:30:42;;;;;;;8.90;7.75;;;20.40;81.10;;;;;;5092112;28;20028;-77
2021/06/04 00:33:09;;;;;;;11.48;7.93;;;20.40;80.50;;;;;;5093436;28;20097;-77
2021/06/04 00:35:37;;;;;;;11.52;8.02;;;20.40;81.00;;;;;;5093521;28;20028;-77
2021/06/04 00:38:05;;;;;;;9.90;7.85;;;20.30;81.20;;;;;;5092332;28;20012;-77
2021/06/04 00:40:35;;;;;;;9.15;7.70;;;20.30;81.80;;;;;;5092072;28;20387;-77
2021/06/04 00:43:01;;;;;;;10.57;8.13;;;20.30;81.80;;;;;;5091679;28;20024;-77
2021/06/04 00:45:30;;;;;;;13.27;8.35;;;20.40;81.80;;;;;;5092159;28;20114;-77
2021/06/04 00:47:57;;;;;;;11.52;8.60;;;20.40;81.60;;;;;;5093519;28;20028;-77
2021/06/04 00:50:51;;;;;;;11.60;8.30;;;20.30;81.90;;;;;;5093355;28;20065;-77
2021/06/04 00:53:18;;;;;;;14.40;9.02;;;20.40;82.00;;;;;;5085319;28;20062;-77
2021/06/04 00:55:44;;;;;;;10.65;8.70;;;20.30;81.70;;;;;;5093155;28;20016;-77
2021/06/04 00:58:13;;;;;;;13.68;8.80;;;20.30;82.10;;;;;;5093121;28;20614;-77
2021/06/04 01:00:47;;;;;;;16.40;7.97;;;20.30;82.30;;;;;;5093139;28;20020;-77
2021/06/04 01:03:17;;;;;;;11.43;8.50;;;20.30;82.50;;;;;;5092931;28;20115;-77
2021/06/04 01:05:44;;;;;;;12.52;9.50;;;20.30;82.50;;;;;;5092873;28;20073;-77
2021/06/04 01:08:27;;;;;;;11.50;8.55;;;20.30;82.90;;;;;;5092619;28;20028;-77
2021/06/04 01:11:02;;;;;;;14.43;9.77;;;20.30;82.70;;;;;;5092832;28;20024;-77
2021/06/04 01:13:38;;;;;;;11.77;8.80;;;20.30;83.00;;;;;;5092843;28;20020;-77
2021/06/04 01:16:12;;;;;;;12.80;9.23;;;20.40;83.20;;;;;;5093083;28;20020;-77
2021/06/04 01:19:03;;;;;;;12.38;9.60;;;20.40;83.00;;;;;;5091542;28;20093;-77
2021/06/04 01:21:32;;;;;;;12.02;8.45;;;20.30;83.10;;;;;;5092658;28;20127;-77
2021/06/04 01:24:10;;;;;;;9.00;8.18;;;20.40;83.40;;;;;;5090573;28;20046;-77
2021/06/04 01:26:50;;;;;;;10.02;8.68;;;20.40;83.50;;;;;;5092742;28;20035;-77
2021/06/04 01:29:30;;;;;;;13.55;9.23;;;20.30;83.60;;;;;;5091340;28;20109;-77
2021/06/04 01:32:00;;;;;;;13.20;9.52;;;20.30;84.10;;;;;;5092403;28;20475;-77
2021/06/04 01:34:39;;;;;;;14.13;9.07;;;20.30;84.20;;;;;;5091151;28;20039;-78
2021/06/04 01:37:09;;;;;;;12.48;9.38;;;20.30;84.40;;;;;;5092588;28;20379;-77
2021/06/04 01:39:45;;;;;;;12.27;9.13;;;20.30;84.50;;;;;;5092720;28;20024;-77
2021/06/04 01:42:15;;;;;;;12.57;10.02;;;20.20;84.80;;;;;;5078173;28;20025;-77
2021/06/04 01:45:11;;;;;;;12.25;9.02;;;20.20;85.00;;;;;;5083520;28;20028;-77
2021/06/04 01:47:40;;;;;;;13.77;8.52;;;20.20;85.30;;;;;;5091059;28;20044;-77
2021/06/04 01:50:23;;;;;;;11.68;9.38;;;20.20;85.30;;;;;;5090624;28;20048;-77
2021/06/04 01:52:49;;;;;;;11.15;8.93;;;20.20;85.60;;;;;;5090941;28;20027;-77
2021/06/04 01:55:24;;;;;;;10.23;8.25;;;20.20;85.70;;;;;;5094892;28;20036;-77
2021/06/04 01:58:03;;;;;;;13.68;8.70;;;20.10;86.70;;;;;;5095817;28;20031;-77
2021/06/04 02:00:42;;;;;;;10.32;8.95;;;20.10;86.10;;;;;;5095438;28;20012;-77
2021/06/04 02:03:11;;;;;;;13.82;9.52;;;20.10;86.00;;;;;;5095036;28;20028;-77
2021/06/04 02:05:38;;;;;;;9.50;8.50;;;20.20;86.20;;;;;;5096261;28;20024;-77
2021/06/04 02:08:09;;;;;;;10.82;8.60;;;20.10;86.50;;;;;;5096515;28;20036;-77
2021/06/04 02:10:43;;;;;;;8.75;7.85;;;20.00;87.20;;;;;;5095584;28;20107;-77
2021/06/04 02:13:10;;;;;;;10.32;8.80;;;19.90;87.80;;;;;;5075732;28;20082;-77
2021/06/04 02:15:40;;;;;;;9.93;8.68;;;19.90;88.20;;;;;;5087127;28;20020;-77
2021/06/04 02:18:29;;;;;;;9.95;8.32;;;19.80;88.60;;;;;;5096320;28;20020;-77
2021/06/04 02:20:59;;;;;;;10.30;8.57;;;19.80;88.50;;;;;;5095615;28;20012;-77
2021/06/04 02:23:33;;;;;;;12.57;8.40;;;19.70;89.00;;;;;;5095901;28;20044;-77
2021/06/04 02:26:07;;;;;;;11.35;8.65;;;19.70;89.50;;;;;;5095930;28;20024;-77
2021/06/04 02:28:52;;;;;;;9.23;8.07;;;19.70;89.50;;;;;;5095841;28;20028;-77
2021/06/04 02:31:29;;;;;;;10.63;8.77;;;19.70;90.10;;;;;;5095885;28;20080;-77
2021/06/04 02:34:02;;;;;;;11.55;8.63;;;19.70;89.60;;;;;;5095513;28;20167;-77
2021/06/04 02:36:34;;;;;;;8.98;7.90;;;19.70;89.90;;;;;;5095844;28;20012;-77
2021/06/04 02:39:14;;;;;;;8.68;7.80;;;19.70;89.60;;;;;;5095924;28;20024;-77
2021/06/04 02:41:45;;;;;;;12.40;8.82;;;19.70;89.50;;;;;;5095405;28;20028;-77
2021/06/04 02:44:25;;;;;;;12.27;8.75;;;19.80;89.50;;;;;;5094336;28;20125;-77
2021/06/04 02:46:57;;;;;;;11.50;7.65;;;19.70;89.50;;;;;;5095501;28;20076;-77
2021/06/04 02:49:23;;;;;;;10.52;8.10;;;19.80;89.50;;;;;;5094492;28;20032;-77
2021/06/04 02:51:53;;;;;;;14.13;7.57;;;19.80;89.20;;;;;;5094173;28;20161;-77
2021/06/04 02:54:27;;;;;;;12.75;8.80;;;19.80;89.00;;;;;;5095234;28;20119;-78
2021/06/04 02:57:00;;;;;;;9.05;8.00;;;19.90;88.60;;;;;;5095588;28;20020;-77
2021/06/04 02:59:32;;;;;;;9.95;7.93;;;19.80;88.50;;;;;;5095261;28;20028;-77
2021/06/04 03:02:06;;;;;;;10.68;7.97;;;19.80;88.70;;;;;;5095060;28;20020;-77
2021/06/04 03:04:36;;;;;;;11.05;7.82;;;19.80;88.70;;;;;;5094984;28;20028;-77
2021/06/04 03:07:06;;;;;;;8.98;8.00;;;19.70;89.10;;;;;;5095049;28;20024;-77
2021/06/04 03:09:35;;;;;;;14.23;8.27;;;19.70;89.30;;;;;;5095183;28;20024;-76
2021/06/04 03:12:06;;;;;;;8.88;7.65;;;19.70;89.30;;;;;;5094681;28;20032;-77
2021/06/04 03:14:32;;;;;;;9.10;7.70;;;19.70;89.20;;;;;;5115993;27;20492;-77
2021/06/04 03:17:00;;;;;;;10.23;8.45;;;19.70;89.20;;;;;;5088581;28;20028;-77
2021/06/04 03:19:26;;;;;;;11.40;7.55;;;19.70;88.80;;;;;;5094620;28;20024;-77
2021/06/04 03:22:05;;;;;;;9.93;8.27;;;19.70;89.30;;;;;;5092810;28;20048;-77
2021/06/04 03:24:34;;;;;;;12.57;8.05;;;19.70;89.40;;;;;;5094246;28;20133;-77
2021/06/04 03:27:01;;;;;;;10.02;7.82;;;19.60;89.60;;;;;;5094926;28;20038;-77
2021/06/04 03:29:27;;;;;;;10.20;7.32;;;19.60;89.70;;;;;;5093099;28;20039;-77
2021/06/04 03:31:57;;;;;;;9.35;7.47;;;19.60;89.50;;;;;;5094356;28;20028;-77
2021/06/04 03:34:24;;;;;;;7.20;6.50;;;19.50;89.90;;;;;;5094516;28;20028;-77
2021/06/04 03:36:52;;;;;;;10.88;8.40;;;19.50;90.10;;;;;;5094833;28;20467;-77
2021/06/04 03:39:25;;;;;;;8.95;7.65;;;19.50;90.10;;;;;;5093280;28;20028;-77
2021/06/04 03:41:52;;;;;;;8.18;7.38;;;19.40;90.10;;;;;;5083409;28;20028;-77
2021/06/04 03:44:21;;;;;;;9.35;7.85;;;19.50;90.10;;;;;;5093065;28;20032;-77
2021/06/04 03:46:47;;;;;;;9.32;7.90;;;19.40;90.10;;;;;;5093430;28;20088;-77
2021/06/04 03:49:16;;;;;;;11.85;7.93;;;19.50;90.10;;;;;;5094049;28;20095;-77
2021/06/04 03:51:43;;;;;;;10.73;7.68;;;19.40;90.10;;;;;;5094137;28;20028;-77
2021/06/04 03:54:13;;;;;;;11.18;7.70;;;19.50;90.10;;;;;;5093433;28;20024;-77
2021/06/04 03:56:40;;;;;;;8.50;7.68;;;19.50;90.00;;;;;;5089360;28;20032;-77
2021/06/04 03:59:07;;;;;;;12.65;8.25;;;19.50;89.80;;;;;;5094002;28;20493;-77
2021/06/04 04:01:42;;;;;;;10.05;7.65;;;19.50;89.70;;;;;;5094234;28;20475;-77
2021/06/04 04:04:08;;;;;;;11.93;8.15;;;19.50;89.90;;;;;;5094083;28;20055;-77
2021/06/04 04:06:34;;;;;;;14.90;7.72;;;19.50;89.80;;;;;;5093617;28;20052;-77
2021/06/04 04:09:00;;;;;;;11.02;7.68;;;19.50;89.80;;;;;;5093921;28;20545;-77
2021/06/04 04:11:25;;;;;;;11.32;7.78;;;19.50;89.80;;;;;;5092565;28;20035;-77
2021/06/04 04:13:51;;;;;;;10.23;7.75;;;19.50;89.80;;;;;;5093802;28;20382;-77
2021/06/04 04:16:17;;;;;;;11.13;8.20;;;19.50;90.00;;;;;;5091982;28;20024;-77
2021/06/04 04:18:43;;;;;;;12.32;7.57;;;19.50;90.00;;;;;;5092558;28;20023;-77
2021/06/04 04:21:11;;;;;;;12.48;7.82;;;19.40;89.90;;;;;;5093615;28;20081;-77
2021/06/04 04:23:58;;;;;;;9.88;7.68;;;19.40;90.00;;;;;;5092324;28;20028;-77
2021/06/04 04:26:31;;;;;;;9.88;8.07;;;19.50;90.10;;;;;;5092967;28;20028;-77
2021/06/04 04:28:58;;;;;;;9.05;7.35;;;19.50;90.10;;;;;;5077293;28;20063;-77
2021/06/04 04:31:27;;;;;;;10.90;7.95;;;19.50;90.10;;;;;;5081777;28;20024;-77
2021/06/04 04:33:53;;;;;;;9.48;6.88;;;19.50;90.00;;;;;;5117781;27;20031;-77
2021/06/04 04:36:23;;;;;;;9.93;6.93;;;19.60;90.00;;;;;;5092009;28;20027;-78
2021/06/04 04:38:49;;;;;;;12.00;7.68;;;19.60;90.00;;;;;;5090980;28;20024;-77
2021/06/04 04:41:15;;;;;;;10.70;7.40;;;19.70;90.00;;;;;;5092023;28;20074;-78
2021/06/04 04:43:45;;;;;;;11.30;7.43;;;19.60;89.70;;;;;;5093090;28;20467;-77
2021/06/04 04:46:12;;;;;;;9.55;7.40;;;19.70;89.90;;;;;;5093116;28;20473;-77
2021/06/04 04:48:38;;;;;;;11.57;7.95;;;19.70;89.90;;;;;;5093430;28;20077;-77
2021/06/04 04:51:06;;;;;;;11.77;7.38;;;19.70;90.00;;;;;;5093296;28;20024;-77
2021/06/04 04:53:34;;;;;;;12.95;7.30;;;19.80;90.10;;;;;;5093103;28;20157;-77
2021/06/04 04:56:00;;;;;;;8.00;7.03;;;19.70;90.00;;;;;;5093219;28;20544;-77
2021/06/04 04:58:26;;;;;;;11.05;7.28;;;19.70;90.40;;;;;;5092810;28;20103;-78
2021/06/04 05:00:54;;;;;;;10.77;7.57;;;19.80;90.30;;;;;;5092264;28;20107;-77
2021/06/04 05:03:20;;;;;;;8.10;6.85;;;19.80;90.30;;;;;;5092351;28;20020;-77
2021/06/04 05:05:46;;;;;;;8.73;7.28;;;19.80;90.40;;;;;;5092840;28;20086;-77
2021/06/04 05:08:12;;;;;;;9.23;7.53;;;19.90;90.50;;;;;;5092499;28;20483;-77
2021/06/04 05:10:39;;;;;;;8.02;7.22;;;19.90;90.30;;;;;;5092489;28;20020;-77
2021/06/04 05:13:07;;;;;;;14.25;7.03;;;20.00;90.30;;;;;;5093000;28;20491;-77
2021/06/04 05:15:35;;;;;;;10.20;7.88;;;20.00;90.30;;;;;;5091109;28;20031;-77
2021/06/04 05:18:01;;;;;;;10.25;7.10;;;20.00;90.40;;;;;;5092710;28;20534;-77
2021/06/04 05:20:27;;;;;;;9.63;6.68;;;20.00;90.50;;;;;;5092386;28;20099;-77
2021/06/04 05:22:54;;;;;;;8.63;7.43;;;20.10;90.50;;;;;;5092292;28;20048;-77
2021/06/04 05:25:25;;;;;;;9.55;6.85;;;20.10;90.70;;;;;;5092310;28;20028;-77
2021/06/04 05:27:51;;;;;;;9.65;7.00;;;20.10;90.80;;;;;;5093877;28;20090;-77
2021/06/04 05:30:27;;;;;;;9.32;7.50;;;20.20;90.70;;;;;;5095066;28;20028;-77
2021/06/04 05:32:54;;;;;;;8.70;6.57;;;20.20;90.70;;;;;;5096614;28;20031;-77
2021/06/04 05:35:20;;;;;;;8.65;6.70;;;20.20;90.80;;;;;;5096848;28;20027;-77
2021/06/04 05:37:47;;;;;;;10.88;7.50;;;20.30;90.90;;;;;;5095506;28;20021;-77
2021/06/04 05:40:19;;;;;;;7.60;6.80;;;20.30;91.00;;;;;;5096616;28;20027;-77
2021/06/04 05:42:46;;;;;;;8.07;7.25;;;20.40;91.20;;;;;;5096714;28;20078;-77
2021/06/04 05:45:17;;;;;;;11.70;6.72;;;20.40;91.30;;;;;;5096229;28;20506;-77
2021/06/04 05:47:47;;;;;;;10.20;6.85;;;20.50;91.20;;;;;;5088919;28;20016;-77
2021/06/04 05:50:16;;;;;;;7.50;6.65;;;20.50;91.90;;;;;;5096712;28;20391;-77
2021/06/04 05:52:43;;;;;;;7.70;6.78;;;20.60;91.50;;;;;;5095287;28;20052;-77
2021/06/04 05:55:11;;;;;;;9.77;6.55;;;20.60;91.50;;;;;;5095064;28;20542;-77
2021/06/04 05:57:37;;;;;;;6.93;6.32;;;20.70;91.50;;;;;;5096280;28;20020;-77
2021/06/04 06:00:12;;;;;;;7.18;6.45;;;20.70;91.40;;;;;;5096297;28;20028;-77
2021/06/04 06:02:38;;;;;;;9.55;6.63;;;20.80;91.70;;;;;;5094629;28;20057;-77
2021/06/04 06:05:05;;;;;;;7.57;6.63;;;20.90;91.70;;;;;;5096526;28;20020;-77
2021/06/04 06:07:31;;;;;;;10.88;6.72;;;20.90;92.10;;;;;;5096216;28;20028;-77
2021/06/04 06:09:56;;;;;;;7.85;6.45;;;21.00;92.00;;;;;;5096593;28;20375;-77
2021/06/04 06:12:22;;;;;;;8.65;6.93;;;21.10;92.10;;;;;;5079645;28;20024;-77
2021/06/04 06:14:48;;;;;;;7.55;5.93;;;21.10;92.10;;;;;;5075907;28;20074;-77
2021/06/04 06:17:14;;;;;;;8.48;6.57;;;21.20;92.10;;;;;;5075996;28;20028;-77
2021/06/04 06:19:40;;;;;;;8.52;6.30;;;21.20;92.00;;;;;;5087435;28;20108;-77
2021/06/04 06:22:05;;;;;;;8.15;5.80;;;21.30;91.80;;;;;;5096063;28;20126;-77
2021/06/04 06:24:31;;;;;;;9.23;5.70;;;21.40;91.60;;;;;;5095977;28;20081;-77
2021/06/04 06:26:57;;;;;;;7.57;6.03;;;21.50;91.60;;;;;;5095867;28;20028;-77
2021/06/04 06:29:24;;;;;;;6.57;5.97;;;21.50;91.70;;;;;;5096011;28;20081;-77
2021/06/04 06:31:50;;;;;;;7.80;7.05;;;21.60;92.40;;;;;;5095812;28;20376;-77
2021/06/04 06:34:16;;;;;;;9.15;7.25;;;21.60;92.20;;;;;;5095816;28;20050;-77
2021/06/04 06:36:45;;;;;;;10.90;7.97;;;21.60;92.20;;;;;;5094581;28;20048;-77
2021/06/04 06:39:18;;;;;;;10.23;7.80;;;21.70;92.80;;;;;;5094989;28;20065;-77
2021/06/04 06:41:45;;;;;;;17.67;8.40;;;21.80;92.80;;;;;;5085010;28;20029;-77
2021/06/04 06:44:12;;;;;;;9.05;8.10;;;21.90;93.70;;;;;;5075492;28;20025;-77
2021/06/04 06:46:39;;;;;;;11.63;9.13;;;22.00;94.20;;;;;;5075465;28;20024;-77
2021/06/04 06:49:05;;;;;;;13.10;8.57;;;22.00;93.80;;;;;;5075566;28;20166;-77
2021/06/04 06:51:36;;;;;;;10.27;8.23;;;22.10;93.70;;;;;;5075257;28;20498;-77
2021/06/04 06:54:06;;;;;;;13.13;8.90;;;22.20;93.30;;;;;;5086339;28;20396;-77
2021/06/04 06:56:32;;;;;;;14.85;9.20;;;22.20;92.70;;;;;;5097582;28;20020;-77
2021/06/04 06:58:59;;;;;;;10.35;9.18;;;22.20;92.80;;;;;;5098063;28;20559;-77
2021/06/04 07:01:24;;;;;;;10.05;9.00;;;22.20;92.80;;;;;;5095359;28;20031;-77
2021/06/04 07:03:50;;;;;;;16.85;8.77;;;22.20;93.00;;;;;;5094993;28;20393;-78
2021/06/04 07:06:25;;;;;;;10.00;9.00;;;22.30;92.40;;;;;;5095172;28;20095;-78
2021/06/04 07:08:51;;;;;;;12.07;8.18;;;22.40;92.40;;;;;;5094245;28;20035;-78
2021/06/04 07:11:18;;;;;;;11.73;8.80;;;22.40;91.50;;;;;;5093663;28;20368;-77
2021/06/04 07:13:45;;;;;;;10.88;8.63;;;22.40;91.10;;;;;;5089859;28;20035;-77
2021/06/04 07:16:12;;;;;;;9.90;8.27;;;22.50;91.20;;;;;;5093711;28;20029;-77
2021/06/04 07:18:39;;;;;;;10.70;8.48;;;22.50;91.10;;;;;;5092948;28;20020;-77
2021/06/04 07:21:07;;;;;;;11.88;7.72;;;22.60;90.90;;;;;;5085614;28;20419;-77
2021/06/04 07:23:33;;;;;;;12.27;8.40;;;22.60;90.20;;;;;;5094461;28;20495;-77
2021/06/04 07:25:59;;;;;;;12.13;8.40;;;22.70;91.00;;;;;;5093779;28;20026;-76
2021/06/04 07:28:31;;;;;;;9.65;8.63;;;22.60;90.60;;;;;;5093199;28;20047;-76
2021/06/04 07:30:58;;;;;;;9.98;8.30;;;22.70;89.50;;;;;;5105152;28;20079;-76
2021/06/04 07:33:48;;;;;;;9.48;8.30;;;22.80;89.40;;;;;;5105706;28;20043;-77
2021/06/04 07:36:21;;;;;;;11.15;9.02;;;22.80;89.80;;;;;;5080717;28;20420;-77
2021/06/04 07:38:47;;;;;;;11.20;8.32;;;22.80;87.70;;;;;;5092101;28;20013;-77
2021/06/04 07:41:14;;;;;;;9.65;8.52;;;22.90;89.20;;;;;;5092996;28;20074;-77
2021/06/04 07:43:44;;;;;;;11.15;8.73;;;22.90;89.00;;;;;;5094072;28;20032;-77
2021/06/04 07:46:11;;;;;;;11.93;8.77;;;22.90;88.10;;;;;;5092996;28;20110;-77
2021/06/04 07:48:38;;;;;;;9.63;8.63;;;23.00;87.00;;;;;;5094282;28;20024;-77
2021/06/04 07:51:08;;;;;;;12.65;7.63;;;23.10;87.20;;;;;;5093121;28;20368;-77
2021/06/04 07:53:36;;;;;;;13.00;8.45;;;23.10;87.70;;;;;;5094059;28;20012;-77
2021/06/04 07:56:03;;;;;;;12.15;8.27;;;23.20;87.00;;;;;;5093926;28;20146;-77
2021/06/04 07:58:29;;;;;;;8.82;7.93;;;23.20;86.00;;;;;;5100575;28;20016;-77
2021/06/04 08:00:55;;;;;;;9.32;6.90;;;23.20;86.10;;;;;;5113197;28;20027;-77
2021/06/04 08:03:25;;;;;;;9.45;6.78;;;23.30;85.60;;;;;;5098727;28;20035;-77
2021/06/04 08:05:51;;;;;;;7.47;6.60;;;23.30;85.70;;;;;;5093561;28;20038;-77
2021/06/04 08:08:19;;;;;;;6.45;5.50;;;23.40;87.60;;;;;;5093834;28;20022;-77
2021/06/04 08:10:46;;;;;;;11.52;6.53;;;23.40;87.30;;;;;;5091145;28;20020;-76
2021/06/04 08:13:14;;;;;;;7.97;7.07;;;23.40;87.60;;;;;;5106129;28;20049;-76
2021/06/04 08:15:45;;;;;;;8.32;7.53;;;23.50;87.30;;;;;;5106017;28;20024;-76
2021/06/04 08:18:12;;;;;;;9.85;7.97;;;23.60;83.50;;;;;;5073670;28;20044;-76
2021/06/04 08:20:39;;;;;;;9.55;7.28;;;23.70;82.10;;;;;;5089246;28;20030;-76
2021/06/04 08:23:12;;;;;;;8.32;7.53;;;23.70;81.40;;;;;;5113726;28;20058;-76
2021/06/04 08:25:42;;;;;;;7.72;7.03;;;23.70;81.20;;;;;;5097397;28;20028;-76
2021/06/04 08:28:08;;;;;;;7.47;6.22;;;23.70;81.70;;;;;;5097347;28;20030;-76
2021/06/04 08:30:34;;;;;;;12.65;7.25;;;23.70;84.30;;;;;;5113805;28;20026;-76
2021/06/04 08:33:02;;;;;;;7.80;7.00;;;23.70;82.60;;;;;;5113483;28;20042;-76
2021/06/04 08:35:29;;;;;;;7.75;6.95;;;23.70;82.00;;;;;;5097648;28;20127;-76
2021/06/04 08:37:56;;;;;;;8.57;7.03;;;23.70;84.20;;;;;;5092973;28;20043;-77
2021/06/04 08:40:30;;;;;;;9.93;7.18;;;23.80;87.70;;;;;;5097485;28;20028;-77
2021/06/04 08:43:24;;;;;;;12.63;7.40;;;23.80;85.40;;;;;;5093391;28;20024;-77
2021/06/04 08:46:24;;;;;;;11.98;8.15;;;23.90;83.70;;;;;;5093897;28;20030;-77
2021/06/04 08:48:53;;;;;;;11.02;8.02;;;24.10;85.90;;;;;;5091633;28;20115;-77
2021/06/04 08:51:21;;;;;;;10.07;8.10;;;24.10;82.10;;;;;;5083592;28;20446;-77
2021/06/04 08:53:53;;;;;;;10.07;8.48;;;24.10;82.60;;;;;;5092686;28;20111;-77
2021/06/04 08:56:23;;;;;;;;;;;24.10;83.90;;;;;;5093370;28;20020;-77
2021/06/04 08:58:57;;;;;;;14.85;9.50;;;24.20;82.80;;;;;;5092950;28;19908;-77
2021/06/04 09:01:49;;;;;;;13.20;11.00;;;24.20;80.80;;;;;;5092992;28;20133;-77
2021/06/04 09:04:21;;;;;;;22.15;9.27;;;24.20;79.30;;;;;;5092404;28;20044;-77
2021/06/04 09:06:53;;;;;;;12.50;9.13;;;24.30;81.90;;;;;;5091565;28;20598;-76
2021/06/04 09:09:37;;;;;;;10.75;9.65;;;24.30;80.70;;;;;;5091280;28;20031;-77
2021/06/04 09:12:17;;;;;;;13.48;10.57;;;24.40;82.00;;;;;;5092121;28;20032;-77
2021/06/04 09:14:44;;;;;;;14.45;9.77;;;24.50;81.70;;;;;;5091399;28;20032;-77
2021/06/04 09:17:42;;;;;;;12.20;10.13;;;24.50;82.20;;;;;;5093014;28;20017;-77
2021/06/04 09:20:21;;;;;;;11.90;9.93;;;24.40;79.30;;;;;;5047281;28;20028;-76
2021/06/04 09:22:52;;;;;;;19.75;11.77;;;24.40;80.40;;;;;;5095333;28;20047;-77
2021/06/04 09:25:21;;;;;;;15.97;11.13;;;24.50;78.00;;;;;;5076360;28;20083;-77
2021/06/04 09:27:50;;;;;;;15.82;11.57;;;24.60;78.10;;;;;;5091071;28;20265;-77
2021/06/04 09:30:32;;;;;;;16.80;11.27;;;24.60;78.00;;;;;;5091964;28;20100;-77
2021/06/04 09:33:18;;;;;;;15.95;11.18;;;24.60;79.40;;;;;;5092298;28;20060;-77
2021/06/04 09:36:02;;;;;;;18.52;13.70;;;24.70;81.20;;;;;;5092568;28;20023;-77
2021/06/04 09:38:37;;;;;;;13.85;11.15;;;24.80;79.70;;;;;;5091041;28;20035;-77
2021/06/04 09:41:11;;;;;;;17.23;12.13;;;24.80;80.70;;;;;;5090987;28;20044;-77
2021/06/04 09:43:37;;;;;;;16.20;11.85;;;24.90;80.30;;;;;;5090956;28;20025;-76
2021/06/04 09:46:06;;;;;;;19.17;12.75;;;25.10;81.30;;;;;;5103239;28;20644;-77
2021/06/04 09:48:55;;;;;;;22.42;12.82;;;25.10;79.20;;;;;;5090884;28;20021;-77
2021/06/04 09:51:26;;;;;;;17.58;10.85;;;25.20;79.50;;;;;;5093717;28;20036;-77
2021/06/04 09:53:53;;;;;;;17.87;12.97;;;25.20;82.30;;;;;;5092184;28;20021;-77
2021/06/04 09:56:24;;;;;;;16.55;11.73;;;25.30;81.20;;;;;;5090949;28;20031;-77
2021/06/04 09:58:57;;;;;;;21.07;13.57;;;25.30;84.80;;;;;;5092174;28;20490;-77
2021/06/04 10:01:26;;;;;;;15.07;11.48;;;25.50;77.30;;;;;;5106602;28;20417;-77
2021/06/04 10:04:03;;;;;;;13.95;9.77;;;25.50;78.30;;;;;;5109743;28;20035;-77
2021/06/04 10:06:41;;;;;;;14.73;10.85;;;25.60;77.40;;;;;;5092391;28;20031;-76
2021/06/04 10:09:21;;;;;;;14.48;11.73;;;25.60;75.00;;;;;;5104054;28;20157;-77
2021/06/04 10:11:51;;;;;;;16.13;11.32;;;25.60;74.90;;;;;;5112570;28;20144;-77
2021/06/04 10:14:54;;;;;;;16.08;11.07;;;25.60;72.40;;;;;;5113288;28;20020;-77
2021/06/04 10:17:44;;;;;;;14.55;10.35;;;25.60;72.00;;;;;;5095873;28;20028;-75
2021/06/04 10:20:28;;;;;;;12.73;9.77;;;25.60;73.00;;;;;;5089366;28;20024;-74
2021/06/04 10:23:07;;;;;;;17.77;12.10;;;25.60;74.40;;;;;;5099137;28;20118;-75
2021/06/04 10:25:40;;;;;;;16.65;12.23;;;25.70;73.10;;;;;;5106417;28;20035;-75
2021/06/04 10:28:06;;;;;;;19.33;10.52;;;25.80;73.10;;;;;;5093978;28;20491;-75
2021/06/04 10:30:35;;;;;;;14.55;9.55;;;25.90;71.60;;;;;;5093315;28;20030;-75
2021/06/04 10:33:33;;;;;;;12.80;10.45;;;26.00;74.60;;;;;;5086711;28;20032;-75
2021/06/04 10:36:22;;;;;;;13.48;9.85;;;26.10;72.20;;;;;;5094078;28;20066;-75
2021/06/04 10:38:58;;;;;;;14.75;10.05;;;26.30;74.70;;;;;;5093971;28;20075;-75
2021/06/04 10:42:08;;;;;;;14.60;11.77;;;26.50;76.20;;;;;;5101718;28;20363;-75
2021/06/04 10:44:57;;;;;;;10.82;9.60;;;26.60;71.70;;;;;;5079957;28;20093;-75
2021/06/04 10:47:49;;;;;;;10.43;8.45;;;26.70;73.50;;;;;;5097214;28;20039;-75
2021/06/04 10:50:21;;;;;;;10.45;8.52;;;26.90;68.60;;;;;;5094139;28;20024;-77
2021/06/04 10:53:14;;;;;;;10.63;9.50;;;26.80;70.50;;;;;;5103172;28;20028;-76
2021/06/04 10:56:04;;;;;;;10.07;8.95;;;26.90;72.70;;;;;;5104448;28;20038;-76
2021/06/04 10:59:07;;;;;;;12.07;9.82;;;27.10;73.60;;;;;;5088379;28;20021;-77
2021/06/04 11:01:42;;;;;;;13.35;9.77;;;27.20;68.60;;;;;;5093844;28;20039;-76
2021/06/04 11:04:17;;;;;;;12.80;9.77;;;27.20;70.40;;;;;;5095252;28;20612;-76
2021/06/04 11:06:45;;;;;;;10.25;9.18;;;27.30;70.60;;;;;;5095343;28;20036;-77
2021/06/04 11:09:22;;;;;;;9.63;7.35;;;27.40;68.30;;;;;;5106323;28;20073;-76
2021/06/04 11:12:15;;;;;;;11.70;10.10;;;27.50;70.20;;;;;;5074819;28;20021;-77
2021/06/04 11:14:56;;;;;;;11.15;8.43;;;27.50;66.60;;;;;;5094673;28;20031;-77
2021/06/04 11:17:47;;;;;;;9.30;7.95;;;27.70;68.20;;;;;;5103856;28;20035;-76
2021/06/04 11:20:27;;;;;;;8.93;7.85;;;27.60;65.30;;;;;;5111505;28;20023;-76
2021/06/04 11:22:55;;;;;;;9.63;8.65;;;27.70;66.00;;;;;;5094543;28;20043;-77
2021/06/04 11:25:50;;;;;;;4.80;4.40;;;27.60;66.40;;;;;;5104527;28;20036;-76
2021/06/04 11:28:26;;;;;;;8.45;5.65;;;27.60;61.90;;;;;;5093090;28;20024;-77
2021/06/04 11:30:54;;;;;;;9.93;7.30;;;27.70;63.30;;;;;;5096362;28;20037;-77
2021/06/04 11:33:23;;;;;;;9.10;6.70;;;27.70;61.90;;;;;;5094617;28;20486;-77
2021/06/04 11:36:04;;;;;;;9.05;6.70;;;27.80;62.50;;;;;;5094747;28;20085;-76
2021/06/04 11:38:43;;;;;;;8.35;7.60;;;28.00;64.80;;;;;;5093102;28;20055;-77
2021/06/04 11:41:34;;;;;;;7.95;7.15;;;28.00;64.00;;;;;;5091705;28;20020;-76
2021/06/04 11:44:24;;;;;;;7.43;5.97;;;28.10;63.20;;;;;;5101085;28;20030;-76
2021/06/04 11:47:11;;;;;;;4.30;4.00;;;28.20;60.90;;;;;;5108594;28;20016;-77
2021/06/04 11:49:54;;;;;;;3.38;3.08;;;28.30;60.20;;;;;;5103858;28;20027;-76
2021/06/04 11:52:45;;;;;;;5.63;5.13;;;28.40;58.40;;;;;;5078020;28;20028;-77
2021/06/04 11:55:13;;;;;;;5.43;4.88;;;28.50;58.20;;;;;;5072165;28;20483;-76
2021/06/04 11:58:15;;;;;;;8.70;4.57;;;28.40;57.30;;;;;;5092921;28;20024;-76
2021/06/04 12:00:56;;;;;;;;;;;28.70;59.90;;;;;;5093297;28;20073;-76
2021/06/04 12:03:32;;;;;;;4.72;4.07;;;28.90;56.80;;;;;;5101507;28;19904;-76
2021/06/04 12:06:25;;;;;;;5.13;4.63;;;28.90;57.00;;;;;;5095247;28;20035;-76
2021/06/04 12:08:52;;;;;;;4.45;4.05;;;29.10;56.40;;;;;;5105577;28;20456;-76
2021/06/04 12:11:17;;;;;;;5.60;4.43;;;29.20;55.60;;;;;;5092491;28;20017;-76
2021/06/04 12:13:48;;;;;;;5.75;4.70;;;29.20;55.70;;;;;;5108318;28;20023;-76
2021/06/04 12:16:30;;;;;;;4.85;4.25;;;29.20;54.50;;;;;;5114317;28;20020;-76
2021/06/04 12:19:17;;;;;;;5.75;5.25;;;29.30;55.30;;;;;;5103561;28;20471;-76
2021/06/04 12:21:45;;;;;;;5.55;4.20;;;29.20;54.10;;;;;;5093493;28;20403;-76
2021/06/04 12:24:20;;;;;;;3.63;3.42;;;29.30;54.70;;;;;;5095275;28;20051;-76
2021/06/04 12:26:58;;;;;;;5.93;3.33;;;29.30;53.80;;;;;;5112775;28;20360;-76
2021/06/04 12:29:25;;;;;;;3.15;2.95;;;29.50;52.20;;;;;;5114002;28;20082;-76
2021/06/04 12:31:58;;;;;;;3.58;3.28;;;29.60;51.30;;;;;;5098975;28;20360;-76
2021/06/04 12:34:39;;;;;;;4.20;3.85;;;29.60;52.20;;;;;;5093465;28;20020;-76
2021/06/04 12:37:05;;;;;;;6.00;4.13;;;29.60;53.10;;;;;;5091368;28;20083;-76
2021/06/04 12:39:35;;;;;;;4.63;4.15;;;29.70;52.90;;;;;;5093084;28;20016;-75
2021/06/04 12:42:18;;;;;;;4.60;4.10;;;29.80;52.30;;;;;;5093100;28;20101;-75
2021/06/04 12:45:06;;;;;;;5.22;4.82;;;29.90;52.30;;;;;;5092294;28;20024;-74
2021/06/04 12:47:41;;;;;;;8.80;6.05;;;30.00;52.50;;;;;;5090584;28;20042;-75
2021/06/04 12:50:18;;;;;;;6.43;5.47;;;30.00;53.20;;;;;;5099544;28;20028;-75
2021/06/04 12:52:44;;;;;;;6.72;6.05;;;30.00;51.90;;;;;;5095474;28;20031;-75
2021/06/04 12:55:26;;;;;;;5.25;4.78;;;30.10;52.60;;;;;;5097237;28;20024;-75
2021/06/04 12:57:52;;;;;;;6.30;5.70;;;30.30;53.20;;;;;;5092633;28;20020;-76
2021/06/04 13:00:27;;;;;;;7.00;5.47;;;30.40;52.30;;;;;;5109219;28;20031;-76
2021/06/04 13:02:56;;;;;;;5.70;4.93;;;30.40;51.90;;;;;;5101997;28;20042;-76
2021/06/04 13:05:26;;;;;;;5.25;4.75;;;30.50;53.10;;;;;;5098120;28;20039;-76
2021/06/04 13:07:53;;;;;;;4.43;4.07;;;30.60;52.50;;;;;;5087266;28;20157;-76